createdAt,value
2023-04-12T00:01:08.231Z,0.93
2023-04-12T00:03:35.370Z,0.47
2023-04-12T00:06:07.429Z,0.50
2023-04-12T00:08:35.400Z,1.00
2023-04-12T00:11:03.683Z,0.57
2023-04-12T00:13:31.211Z,0.65
2023-04-12T00:15:59.392Z,0.32
2023-04-12T00:18:27.514Z,0.43
2023-04-12T00:20:55.686Z,0.30
2023-04-12T00:23:22.741Z,0.30
2023-04-12T00:25:49.640Z,1.02
2023-04-12T00:28:22.244Z,0.25
2023-04-12T00:30:50.452Z,0.80
2023-04-12T00:33:17.301Z,0.32
2023-04-12T00:35:44.170Z,0.22
2023-04-12T00:38:11.265Z,0.30
2023-04-12T00:40:42.812Z,1.13
2023-04-12T00:43:15.744Z,1.10
2023-04-12T00:45:43.102Z,0.35
2023-04-12T00:48:10.629Z,0.40
2023-04-12T00:50:37.704Z,0.30
2023-04-12T00:53:04.722Z,0.43
2023-04-12T00:55:32.324Z,0.20
2023-04-12T00:57:59.536Z,0.30
2023-04-12T01:00:26.585Z,0.20
2023-04-12T01:02:54.040Z,1.83
2023-04-12T01:05:23.823Z,0.25
2023-04-12T01:08:15.037Z,0.20
2023-04-12T01:11:04.559Z,0.20
2023-04-12T01:13:40.155Z,0.30
2023-04-12T01:16:12.963Z,0.40
2023-04-12T01:18:42.626Z,1.20
2023-04-12T01:21:40.079Z,0.30
2023-04-12T01:24:26.708Z,0.73
2023-04-12T01:26:58.024Z,0.10
2023-04-12T01:29:27.929Z,0.30
2023-04-12T01:32:02.033Z,0.30
2023-04-12T01:36:59.070Z,0.20
2023-04-12T01:39:26.519Z,0.10
2023-04-12T01:41:53.627Z,0.60
2023-04-12T01:44:20.763Z,0.20
2023-04-12T01:46:49.134Z,0.20
2023-04-12T01:49:17.891Z,0.28
2023-04-12T01:52:12.396Z,0.40
2023-04-12T01:54:43.098Z,0.32
2023-04-12T01:57:11.016Z,0.32
2023-04-12T01:59:45.589Z,0.40
2023-04-12T02:02:13.805Z,0.47
2023-04-12T02:04:42.553Z,0.30
2023-04-12T02:07:09.760Z,0.20
2023-04-12T02:09:41.146Z,0.45
2023-04-12T02:12:09.186Z,1.20
2023-04-12T02:14:37.043Z,0.38
2023-04-12T02:17:05.582Z,0.30
2023-04-12T02:19:33.354Z,0.70
2023-04-12T02:22:01.132Z,0.93
2023-04-12T02:24:29.425Z,0.63
2023-04-12T02:26:58.631Z,0.32
2023-04-12T02:29:25.991Z,0.30
2023-04-12T02:31:53.348Z,0.63
2023-04-12T02:34:22.814Z,0.43
2023-04-12T02:36:57.752Z,0.52
2023-04-12T02:39:25.140Z,0.13
2023-04-12T02:41:52.774Z,0.52
2023-04-12T02:44:20.383Z,0.15
2023-04-12T02:47:03.625Z,0.10
2023-04-12T02:49:33.085Z,0.65
2023-04-12T02:52:02.501Z,0.13
2023-04-12T02:54:37.902Z,0.20
2023-04-12T02:57:06.798Z,0.03
2023-04-12T02:59:39.638Z,0.20
2023-04-12T03:02:17.458Z,0.13
2023-04-12T03:04:47.006Z,0.20
2023-04-12T03:09:50.837Z,0.20
2023-04-12T03:12:20.614Z,0.65
2023-04-12T03:15:12.355Z,0.25
2023-04-12T03:17:39.316Z,0.52
2023-04-12T03:20:09.818Z,0.03
2023-04-12T03:22:40.090Z,0.32
2023-04-12T03:25:10.216Z,0.10
2023-04-12T03:27:41.593Z,0.50
2023-04-12T03:30:10.335Z,0.45
2023-04-12T03:32:39.765Z,0.50
2023-04-12T03:35:10.277Z,0.35
2023-04-12T03:37:42.713Z,0.25
2023-04-12T03:40:11.969Z,0.10
2023-04-12T03:42:42.618Z,0.10
2023-04-12T03:45:14.750Z,0.20
2023-04-12T03:47:49.775Z,0.30
2023-04-12T03:50:19.944Z,0.10
2023-04-12T03:52:53.871Z,0.50
2023-04-12T03:55:21.477Z,0.03
2023-04-12T03:57:51.106Z,0.15
2023-04-12T04:00:20.213Z,0.00
2023-04-12T04:03:08.975Z,0.65
2023-04-12T04:05:42.951Z,0.30
2023-04-12T04:08:10.883Z,0.95
2023-04-12T04:10:48.841Z,0.13
2023-04-12T04:13:16.271Z,0.13
2023-04-12T04:15:43.375Z,0.60
2023-04-12T04:18:11.056Z,0.03
2023-04-12T04:20:38.303Z,0.10
2023-04-12T04:23:05.272Z,0.35
2023-04-12T04:25:33.598Z,0.05
2023-04-12T04:28:08.186Z,0.65
2023-04-12T04:30:39.032Z,0.10
2023-04-12T04:33:09.046Z,0.50
2023-04-12T04:35:41.054Z,0.10
2023-04-12T04:38:34.310Z,0.45
2023-04-12T04:41:15.454Z,0.10
2023-04-12T04:43:52.061Z,0.85
2023-04-12T04:46:22.117Z,0.35
2023-04-12T04:48:51.926Z,0.20
2023-04-12T04:51:18.775Z,0.35
2023-04-12T04:53:45.958Z,0.63
2023-04-12T04:56:14.786Z,0.17
2023-04-12T04:58:43.235Z,0.25
2023-04-12T05:01:13.659Z,0.60
2023-04-12T05:03:41.941Z,0.60
2023-04-12T05:06:09.283Z,0.20
2023-04-12T05:08:38.370Z,1.00
2023-04-12T05:11:05.583Z,0.40
2023-04-12T05:13:33.066Z,0.85
2023-04-12T05:16:02.550Z,0.10
2023-04-12T05:18:29.495Z,0.20
2023-04-12T05:20:56.450Z,0.82
2023-04-12T05:23:23.469Z,0.00
2023-04-12T05:25:52.390Z,0.85
2023-04-12T05:28:21.199Z,0.10
2023-04-12T05:30:48.245Z,0.10
2023-04-12T05:33:20.082Z,0.30
2023-04-12T05:35:49.011Z,0.15
2023-04-12T05:38:16.231Z,0.10
2023-04-12T05:40:46.441Z,0.55
2023-04-12T05:43:15.533Z,0.20
2023-04-12T05:45:42.386Z,0.68
2023-04-12T05:48:10.700Z,0.20
2023-04-12T05:50:37.778Z,0.45
2023-04-12T05:53:04.743Z,0.52
2023-04-12T05:55:34.115Z,0.20
2023-04-12T05:58:02.346Z,0.68
2023-04-12T06:00:30.496Z,1.05
2023-04-12T06:02:58.543Z,0.40
2023-04-12T06:05:25.758Z,0.57
2023-04-12T06:07:52.748Z,0.40
2023-04-12T06:10:19.917Z,0.40
2023-04-12T06:12:50.548Z,0.30
2023-04-12T06:15:21.107Z,0.22
2023-04-12T06:17:53.438Z,0.40
2023-04-12T06:20:20.614Z,1.20
2023-04-12T06:22:48.213Z,0.40
2023-04-12T06:25:17.520Z,1.10
2023-04-12T06:27:46.353Z,0.38
2023-04-12T06:30:15.593Z,0.93
2023-04-12T06:32:42.772Z,0.35
2023-04-12T06:35:09.912Z,1.10
2023-04-12T06:37:36.753Z,0.95
2023-04-12T06:40:03.956Z,1.40
2023-04-12T06:42:30.975Z,0.45
2023-04-12T06:44:57.845Z,0.68
2023-04-12T06:47:25.366Z,0.95
2023-04-12T06:49:56.311Z,0.70
2023-04-12T06:52:26.811Z,0.57
2023-04-12T06:54:54.455Z,1.48
2023-04-12T06:57:21.387Z,0.82
2023-04-12T06:59:48.310Z,0.88
2023-04-12T07:02:15.492Z,0.98
2023-04-12T07:04:42.551Z,1.23
2023-04-12T07:07:10.464Z,1.80
2023-04-12T07:09:37.377Z,0.90
2023-04-12T07:12:04.447Z,1.13
2023-04-12T07:14:31.516Z,0.77
2023-04-12T07:16:58.363Z,2.55
2023-04-12T07:19:25.248Z,0.93
2023-04-12T07:21:52.496Z,1.10
2023-04-12T07:24:19.455Z,1.20
2023-04-12T07:40:03.370Z,2.70
2023-04-12T07:42:30.301Z,3.28
2023-04-12T07:44:57.198Z,5.78
2023-04-12T07:47:24.131Z,5.38
2023-04-12T07:49:51.274Z,6.20
2023-04-12T07:52:18.101Z,8.52
2023-04-12T07:54:45.072Z,6.82
2023-04-12T07:57:12.035Z,7.70
2023-04-12T07:59:38.929Z,5.55
2023-04-12T08:02:06.542Z,6.20
2023-04-12T08:04:33.551Z,6.18
2023-04-12T08:07:00.458Z,6.75
2023-04-12T08:09:27.306Z,6.60
2023-04-12T08:11:54.356Z,7.47
2023-04-12T08:14:21.305Z,6.78
2023-04-12T08:16:48.891Z,6.07
2023-04-12T08:19:16.228Z,5.72
2023-04-12T08:21:43.111Z,5.75
2023-04-12T08:24:09.996Z,6.35
2023-04-12T08:26:36.860Z,5.60
2023-04-12T08:29:03.805Z,5.78
2023-04-12T08:31:31.070Z,5.40
2023-04-12T08:33:59.984Z,5.00
2023-04-12T08:36:27.470Z,4.65
2023-04-12T08:38:58.260Z,4.18
2023-04-12T08:41:25.481Z,4.00
2023-04-12T08:43:52.719Z,3.47
2023-04-12T08:46:20.007Z,2.50
2023-04-12T08:48:48.922Z,1.55
2023-04-12T08:51:20.284Z,1.80
2023-04-12T08:53:47.747Z,2.65
2023-04-12T08:56:16.708Z,1.42
2023-04-12T08:58:49.260Z,1.60
2023-04-12T09:01:17.967Z,1.98
2023-04-12T09:03:47.015Z,2.42
2023-04-12T09:06:14.262Z,1.60
2023-04-12T09:08:55.612Z,2.47
2023-04-12T09:11:27.887Z,2.20
2023-04-12T09:13:56.955Z,1.98
2023-04-12T09:16:41.447Z,2.10
2023-04-12T09:19:09.487Z,2.00
2023-04-12T09:21:37.242Z,2.03
2023-04-12T09:24:12.398Z,3.15
2023-04-12T09:26:40.971Z,2.22
2023-04-12T09:29:23.399Z,2.08
2023-04-12T09:31:57.544Z,1.70
2023-04-12T09:34:25.942Z,2.00
2023-04-12T09:36:54.596Z,0.82
2023-04-12T09:39:32.107Z,0.50
2023-04-12T09:42:31.839Z,0.47
2023-04-12T09:45:01.841Z,0.50
2023-04-12T09:47:39.899Z,0.60
2023-04-12T09:50:08.714Z,1.63
2023-04-12T09:52:38.489Z,1.08
2023-04-12T09:55:10.006Z,0.60
2023-04-12T09:57:40.838Z,2.00
2023-04-12T10:00:14.478Z,1.00
2023-04-12T10:02:45.122Z,1.00
2023-04-12T10:05:16.289Z,1.40
2023-04-12T10:07:44.451Z,0.80
2023-04-12T10:10:13.272Z,0.88
2023-04-12T10:12:41.628Z,0.80
2023-04-12T10:15:13.606Z,1.30
2023-04-12T10:17:48.028Z,1.55
2023-04-12T10:20:17.065Z,1.35
2023-04-12T10:22:51.669Z,2.00
2023-04-12T10:25:21.871Z,2.10
2023-04-12T10:27:49.448Z,1.77
2023-04-12T10:30:27.221Z,1.33
2023-04-12T10:33:02.993Z,1.10
2023-04-12T10:35:31.792Z,1.60
2023-04-12T10:38:05.172Z,1.15
2023-04-12T10:40:33.562Z,1.42
2023-04-12T10:43:19.192Z,0.98
2023-04-12T10:45:46.109Z,1.27
2023-04-12T10:48:39.315Z,1.27
2023-04-12T10:51:28.771Z,1.00
2023-04-12T10:54:10.791Z,0.60
2023-04-12T10:56:42.353Z,0.63
2023-04-12T10:59:25.588Z,0.88
2023-04-12T11:02:22.306Z,0.60
2023-04-12T11:05:04.658Z,0.68
2023-04-12T11:07:56.168Z,0.75
2023-04-12T11:10:41.842Z,0.70
2023-04-12T11:13:14.976Z,0.98
2023-04-12T11:15:42.125Z,0.77
2023-04-12T11:18:12.619Z,1.00
2023-04-12T11:20:43.305Z,1.38
2023-04-12T11:23:11.818Z,1.17
2023-04-12T11:25:38.906Z,0.85
2023-04-12T11:28:17.337Z,1.77
2023-04-12T11:30:53.881Z,0.90
2023-04-12T11:33:40.202Z,1.23
2023-04-12T11:36:09.966Z,1.20
2023-04-12T11:38:38.207Z,1.20
2023-04-12T11:41:08.107Z,1.10
2023-04-12T11:43:38.786Z,1.10
2023-04-12T11:46:07.617Z,0.98
2023-04-12T11:48:35.167Z,1.05
2023-04-12T11:51:19.204Z,0.95
2023-04-12T11:53:46.289Z,1.00
2023-04-12T11:56:13.267Z,1.48
2023-04-12T11:58:40.359Z,1.30
2023-04-12T12:01:07.490Z,1.40
2023-04-12T12:03:35.455Z,1.08
2023-04-12T12:06:02.877Z,1.90
2023-04-12T12:08:30.531Z,1.95
2023-04-12T12:11:07.022Z,1.70
2023-04-12T12:13:52.957Z,1.92
2023-04-12T12:16:25.781Z,1.67
2023-04-12T12:18:53.163Z,2.00
2023-04-12T12:21:21.012Z,2.10
2023-04-12T12:23:49.092Z,2.10
2023-04-12T12:26:28.371Z,2.58
2023-04-12T12:28:57.404Z,2.38
2023-04-12T12:31:28.124Z,2.75
2023-04-12T12:34:01.192Z,2.80
2023-04-12T12:36:33.015Z,3.10
2023-04-12T12:39:18.373Z,2.45
2023-04-12T12:41:54.935Z,2.40
2023-04-12T12:44:23.142Z,2.17
2023-04-12T12:46:57.012Z,1.95
2023-04-12T12:49:28.193Z,2.80
2023-04-12T12:51:56.000Z,1.70
2023-04-12T12:54:39.519Z,1.30
2023-04-12T12:57:08.239Z,2.10
2023-04-12T12:59:35.142Z,1.40
2023-04-12T13:02:02.157Z,1.80
2023-04-12T13:04:29.251Z,1.63
2023-04-12T13:06:56.184Z,1.65
2023-04-12T13:09:23.086Z,1.23
2023-04-12T13:11:50.063Z,1.75
2023-04-12T13:14:16.974Z,1.30
2023-04-12T13:16:46.326Z,1.42
2023-04-12T13:19:13.345Z,1.88
2023-04-12T13:21:40.284Z,1.75
2023-04-12T13:24:07.206Z,1.48
2023-04-12T13:26:35.059Z,1.30
2023-04-12T13:29:02.333Z,1.45
2023-04-12T13:31:29.184Z,0.85
2023-04-12T13:33:56.185Z,2.45
2023-04-12T13:36:23.214Z,1.17
2023-04-12T13:38:50.241Z,1.25
2023-04-12T13:41:17.237Z,0.95
2023-04-12T13:43:44.641Z,0.85
2023-04-12T13:46:13.154Z,0.73
2023-04-12T13:48:40.087Z,1.40
2023-04-12T13:51:07.542Z,1.33
2023-04-12T13:53:34.519Z,0.55
2023-04-12T13:56:01.434Z,1.55
2023-04-12T13:58:28.678Z,1.05
2023-04-12T14:00:58.711Z,0.82
2023-04-12T14:03:25.684Z,2.17
2023-04-12T14:05:52.844Z,1.85
2023-04-12T14:08:19.635Z,1.15
2023-04-12T14:10:46.603Z,0.75
2023-04-12T14:13:13.458Z,0.57
2023-04-12T14:15:40.293Z,0.80
2023-04-12T14:18:07.263Z,0.80
2023-04-12T14:20:34.280Z,0.70
2023-04-12T14:23:01.332Z,1.20
2023-04-12T14:25:28.321Z,1.30
2023-04-12T14:27:55.193Z,1.48
2023-04-12T14:30:22.264Z,1.35
2023-04-12T14:32:49.713Z,2.13
2023-04-12T14:35:17.046Z,1.33
2023-04-12T14:37:44.403Z,1.10
2023-04-12T14:40:11.632Z,0.77
2023-04-12T14:42:38.689Z,1.00
2023-04-12T14:45:08.184Z,0.80
2023-04-12T14:47:35.823Z,1.25
2023-04-12T14:50:06.502Z,2.10
2023-04-12T14:52:33.400Z,0.40
2023-04-12T14:55:01.518Z,0.93
2023-04-12T14:57:28.872Z,1.10
2023-04-12T14:59:56.857Z,1.90
2023-04-12T15:02:24.967Z,1.30
2023-04-12T15:04:52.047Z,1.00
2023-04-12T15:07:19.138Z,0.68
2023-04-12T15:09:46.066Z,0.95
2023-04-12T15:12:15.547Z,1.40
2023-04-12T15:14:42.448Z,0.95
2023-04-12T15:17:10.838Z,1.95
2023-04-12T15:19:37.712Z,0.63
2023-04-12T15:22:04.662Z,1.52
2023-04-12T15:24:31.641Z,1.20
2023-04-12T15:26:58.520Z,1.30
2023-04-12T15:29:28.155Z,1.65
2023-04-12T15:31:56.707Z,1.30
2023-04-12T15:34:25.301Z,1.48
2023-04-12T15:36:52.220Z,1.50
2023-04-12T15:39:19.554Z,1.80
2023-04-12T15:41:46.598Z,0.95
2023-04-12T15:44:13.590Z,1.45
2023-04-12T15:46:42.207Z,1.38
2023-04-12T15:49:10.390Z,0.73
2023-04-12T15:51:37.354Z,0.80
2023-04-12T15:54:05.725Z,1.73
2023-04-12T15:56:34.744Z,1.15
2023-04-12T15:59:01.880Z,0.77
2023-04-12T16:04:46.229Z,0.57
2023-04-12T16:07:14.814Z,0.70
2023-04-12T16:09:42.377Z,2.08
2023-04-12T16:12:09.597Z,0.73
2023-04-12T16:14:37.184Z,1.17
2023-04-12T16:17:04.089Z,1.35
2023-04-12T16:19:31.545Z,1.08
2023-04-12T16:21:58.697Z,1.15
2023-04-12T16:24:25.779Z,0.93
2023-04-12T16:26:53.116Z,1.30
2023-04-12T16:29:19.982Z,1.75
2023-04-12T16:31:47.718Z,2.50
2023-04-12T16:34:15.906Z,1.63
2023-04-12T16:36:43.692Z,1.65
2023-04-12T16:39:11.495Z,1.33
2023-04-12T16:41:38.291Z,1.52
2023-04-12T16:44:05.220Z,1.50
2023-04-12T16:46:32.337Z,2.13
2023-04-12T16:48:59.735Z,1.08
2023-04-12T16:51:27.284Z,1.30
2023-04-12T16:54:04.082Z,1.08
2023-04-12T16:56:31.282Z,0.95
2023-04-12T16:58:59.156Z,1.65
2023-04-12T17:01:26.153Z,1.75
2023-04-12T17:03:53.391Z,1.23
2023-04-12T17:06:20.347Z,1.58
2023-04-12T17:08:50.423Z,0.68
2023-04-12T17:11:17.355Z,1.27
2023-04-12T17:13:46.356Z,1.65
2023-04-12T17:16:16.270Z,1.48
2023-04-12T17:18:43.793Z,2.78
2023-04-12T17:21:11.216Z,0.95
2023-04-12T17:23:38.891Z,2.22
2023-04-12T17:26:08.405Z,1.88
2023-04-12T17:28:37.884Z,1.60
2023-04-12T17:31:04.864Z,0.95
2023-04-12T17:33:31.833Z,1.15
2023-04-12T17:35:58.703Z,0.52
2023-04-12T17:38:25.888Z,0.95
2023-04-12T17:40:52.847Z,1.02
2023-04-12T17:43:20.762Z,1.33
2023-04-12T17:45:47.928Z,1.95
2023-04-12T17:48:15.362Z,1.95
2023-04-12T17:50:45.306Z,1.30
2023-04-12T17:53:12.918Z,1.35
2023-04-12T17:55:41.564Z,0.90
2023-04-12T17:58:08.530Z,1.00
2023-04-12T18:00:35.476Z,2.92
2023-04-12T18:03:03.646Z,2.58
2023-04-12T18:05:31.523Z,2.20
2023-04-12T18:07:59.597Z,1.45
2023-04-12T18:10:27.724Z,1.63
2023-04-12T18:12:54.614Z,2.03
2023-04-12T18:15:21.710Z,1.55
2023-04-12T18:17:48.776Z,1.30
2023-04-12T18:20:16.525Z,1.77
2023-04-12T18:22:44.194Z,1.13
2023-04-12T18:25:12.992Z,1.30
2023-04-12T18:27:39.941Z,1.00
2023-04-12T18:30:07.677Z,0.95
2023-04-12T18:32:34.860Z,0.68
2023-04-12T18:35:02.627Z,1.77
2023-04-12T18:37:29.474Z,2.30
2023-04-12T18:39:56.366Z,1.05
2023-04-12T18:42:23.273Z,0.50
2023-04-12T18:44:51.350Z,0.70
2023-04-12T18:47:19.002Z,0.55
2023-04-12T18:49:45.986Z,0.95
2023-04-12T18:52:12.841Z,1.23
2023-04-12T18:54:39.945Z,1.05
2023-04-12T18:57:07.116Z,0.70
2023-04-12T18:59:34.111Z,0.90
2023-04-12T19:02:01.400Z,0.82
2023-04-12T19:04:28.387Z,2.25
2023-04-12T19:06:56.047Z,1.02
2023-04-12T19:09:23.263Z,0.70
2023-04-12T19:11:51.478Z,0.98
2023-04-12T19:14:18.316Z,1.25
2023-04-12T19:16:45.423Z,0.82
2023-04-12T19:19:12.431Z,1.35
2023-04-12T19:21:39.433Z,0.57
2023-04-12T19:24:06.658Z,1.67
2023-04-12T19:26:36.669Z,1.55
2023-04-12T19:41:49.396Z,0.73
2023-04-12T19:44:16.565Z,1.73
2023-04-12T19:46:43.466Z,1.15
2023-04-12T19:49:10.600Z,0.57
2023-04-12T19:51:37.884Z,1.70
2023-04-12T19:54:04.941Z,0.75
2023-04-12T19:56:32.025Z,0.80
2023-04-12T19:59:00.136Z,0.73
2023-04-12T20:01:27.375Z,1.30
2023-04-12T20:03:54.310Z,0.50
2023-04-12T20:06:21.747Z,1.88
2023-04-12T20:08:48.534Z,0.20
2023-04-12T20:11:15.738Z,0.40
2023-04-12T20:13:42.860Z,1.10
2023-04-12T20:16:10.137Z,0.70
2023-04-12T20:18:37.222Z,1.25
2023-04-12T20:21:06.062Z,2.15
2023-04-12T20:23:33.091Z,1.40
2023-04-12T20:26:00.588Z,2.10
2023-04-12T20:28:27.555Z,1.25
2023-04-12T20:30:54.433Z,1.00
2023-04-12T20:33:21.426Z,1.92
2023-04-12T20:35:51.393Z,0.65
2023-04-12T20:38:18.618Z,0.98
2023-04-12T20:40:46.386Z,0.85
2023-04-12T20:43:13.425Z,1.13
2023-04-12T20:45:40.438Z,1.60
2023-04-12T20:48:07.493Z,1.55
2023-04-12T20:50:34.427Z,0.77
2023-04-12T20:53:01.343Z,1.60
2023-04-12T20:55:35.179Z,0.65
2023-04-12T20:58:04.846Z,0.40
2023-04-12T21:00:33.793Z,1.05
2023-04-12T21:03:04.930Z,0.57
2023-04-12T21:05:35.820Z,0.80
2023-04-12T21:08:02.698Z,1.60
2023-04-12T21:10:29.527Z,1.33
2023-04-12T21:12:57.108Z,0.90
2023-04-12T21:15:23.995Z,1.77
2023-04-12T21:17:52.323Z,0.80
2023-04-12T21:20:19.504Z,2.13
2023-04-12T21:22:47.962Z,0.68
2023-04-12T21:25:16.908Z,1.35
2023-04-12T21:27:46.047Z,1.45
2023-04-12T21:30:13.767Z,0.75
2023-04-12T21:32:42.142Z,1.05
2023-04-12T21:35:09.978Z,1.35
2023-04-12T21:37:40.226Z,3.13
2023-04-12T21:40:09.636Z,1.58
2023-04-12T21:42:37.272Z,0.95
2023-04-12T21:45:05.346Z,1.08
2023-04-12T21:47:32.565Z,1.38
2023-04-12T21:49:59.759Z,1.40
2023-04-12T21:52:26.840Z,0.75
2023-04-12T21:54:57.073Z,1.25
2023-04-12T21:57:24.030Z,1.75
2023-04-12T21:59:51.074Z,1.15
2023-04-12T22:02:18.059Z,1.63
2023-04-12T22:04:45.115Z,1.58
2023-04-12T22:07:13.188Z,0.85
2023-04-12T22:09:41.526Z,1.40
2023-04-12T22:12:09.267Z,1.38
2023-04-12T22:14:36.761Z,1.92
2023-04-12T22:17:04.427Z,1.25
2023-04-12T22:19:31.508Z,2.15
2023-04-12T22:21:58.367Z,2.10
2023-04-12T22:24:26.426Z,1.15
2023-04-12T22:26:57.639Z,2.13
2023-04-12T22:29:25.457Z,0.95
2023-04-12T22:31:52.987Z,1.15
2023-04-12T22:34:22.617Z,1.20
2023-04-12T22:36:52.276Z,1.38
2023-04-12T22:39:22.691Z,0.70
2023-04-12T22:41:49.807Z,1.33
2023-04-12T22:44:18.447Z,0.38
2023-04-12T22:46:48.389Z,0.65
2023-04-12T22:49:20.049Z,1.17
2023-04-12T22:51:46.940Z,2.17
2023-04-12T22:54:14.084Z,0.98
2023-04-12T22:56:47.151Z,1.77
2023-04-12T22:59:18.705Z,1.05
2023-04-12T23:01:46.819Z,2.10
2023-04-12T23:04:15.741Z,0.90
2023-04-12T23:06:44.197Z,1.92
2023-04-12T23:09:12.898Z,2.00
2023-04-12T23:11:41.042Z,2.20
2023-04-12T23:14:09.483Z,2.00
2023-04-12T23:16:42.472Z,1.52
2023-04-12T23:19:12.711Z,1.10
2023-04-12T23:21:41.220Z,2.92
2023-04-12T23:24:08.498Z,1.52
2023-04-12T23:26:35.989Z,2.58
2023-04-12T23:29:04.250Z,0.93
2023-04-12T23:31:34.219Z,1.45
2023-04-12T23:34:06.133Z,0.93
2023-04-12T23:36:33.989Z,1.30
2023-04-12T23:39:02.220Z,0.95
2023-04-12T23:41:31.711Z,2.05
2023-04-12T23:44:00.233Z,1.52
2023-04-12T23:46:27.973Z,1.17
2023-04-12T23:48:55.294Z,1.27
2023-04-12T23:51:22.797Z,2.10
2023-04-12T23:53:50.392Z,1.55
2023-04-12T23:56:19.786Z,1.75
2023-04-12T23:58:48.512Z,2.03
